createdAt,value
2022-10-12T00:00:53.946Z,6.93
2022-10-12T00:03:34.389Z,6.57
2022-10-12T00:06:13.080Z,6.28
2022-10-12T00:08:42.218Z,7.39
2022-10-12T00:11:14.051Z,10.56
2022-10-12T00:13:41.771Z,12.29
2022-10-12T00:16:12.317Z,13.15
2022-10-12T00:18:40.453Z,13.77
2022-10-12T00:21:16.276Z,13.64
2022-10-12T00:23:44.565Z,12.01
2022-10-12T00:26:13.790Z,10.60
2022-10-12T00:28:41.618Z,9.62
2022-10-12T00:31:15.185Z,8.90
2022-10-12T00:33:44.001Z,8.28
2022-10-12T00:36:23.433Z,7.77
2022-10-12T00:38:53.089Z,7.31
2022-10-12T00:41:23.671Z,6.92
2022-10-12T00:43:57.858Z,6.57
2022-10-12T00:46:30.092Z,6.25
2022-10-12T00:49:09.461Z,5.97
2022-10-12T00:51:39.310Z,6.95
2022-10-12T00:54:12.285Z,10.16
2022-10-12T00:56:44.245Z,11.97
2022-10-12T00:59:19.246Z,12.80
2022-10-12T01:01:46.928Z,13.50
2022-10-12T01:04:14.780Z,13.41
2022-10-12T01:06:42.470Z,11.86
2022-10-12T01:09:10.083Z,10.48
2022-10-12T01:11:37.850Z,9.48
2022-10-12T01:14:05.691Z,8.74
2022-10-12T01:16:36.294Z,8.13
2022-10-12T01:19:13.043Z,7.63
2022-10-12T01:21:50.422Z,7.16
2022-10-12T01:24:30.103Z,6.73
2022-10-12T01:27:12.231Z,6.34
2022-10-12T01:30:09.242Z,6.00
2022-10-12T01:33:04.631Z,5.65
2022-10-12T01:35:45.897Z,7.11
2022-10-12T01:38:35.233Z,10.39
2022-10-12T01:41:18.874Z,12.01
2022-10-12T01:43:47.211Z,12.91
2022-10-12T01:46:20.977Z,13.37
2022-10-12T01:48:51.986Z,13.15
2022-10-12T01:51:31.496Z,11.52
2022-10-12T01:54:24.731Z,10.03
2022-10-12T01:57:08.003Z,8.88
2022-10-12T01:59:41.546Z,8.09
2022-10-12T02:02:42.045Z,7.51
2022-10-12T02:05:14.856Z,6.93
2022-10-12T02:07:48.403Z,6.49
2022-10-12T02:10:28.361Z,6.10
2022-10-12T02:12:59.177Z,5.74
2022-10-12T02:15:28.082Z,5.43
2022-10-12T02:17:57.985Z,5.17
2022-10-12T02:20:27.666Z,6.11
2022-10-12T02:22:55.627Z,9.35
2022-10-12T02:25:26.943Z,11.18
2022-10-12T02:28:00.602Z,12.20
2022-10-12T02:30:28.292Z,12.87
2022-10-12T02:33:06.365Z,13.35
2022-10-12T02:36:03.604Z,13.00
2022-10-12T02:38:58.088Z,11.04
2022-10-12T02:41:33.328Z,9.57
2022-10-12T02:44:05.121Z,8.64
2022-10-12T02:46:35.376Z,7.94
2022-10-12T02:49:04.516Z,7.36
2022-10-12T02:51:33.092Z,6.86
2022-10-12T02:54:01.917Z,6.42
2022-10-12T02:56:29.694Z,6.02
2022-10-12T02:58:57.623Z,5.68
2022-10-12T03:01:25.367Z,5.38
2022-10-12T03:03:53.039Z,5.10
2022-10-12T03:06:20.716Z,5.89
2022-10-12T03:08:48.422Z,9.13
2022-10-12T03:11:16.048Z,11.10
2022-10-12T03:13:43.691Z,12.10
2022-10-12T03:16:12.098Z,12.68
2022-10-12T03:18:40.289Z,12.58
2022-10-12T03:21:08.035Z,11.03
2022-10-12T03:23:35.626Z,9.62
2022-10-12T03:26:04.196Z,8.59
2022-10-12T03:28:32.831Z,7.82
2022-10-12T03:31:01.058Z,7.22
2022-10-12T03:33:29.410Z,6.72
2022-10-12T03:35:57.266Z,6.29
2022-10-12T03:38:24.936Z,5.90
2022-10-12T03:40:52.604Z,5.55
2022-10-12T03:43:20.386Z,5.25
2022-10-12T03:45:48.046Z,4.96
2022-10-12T03:48:15.794Z,4.70
2022-10-12T03:50:48.489Z,5.61
2022-10-12T03:53:16.611Z,8.96
2022-10-12T03:55:44.455Z,10.85
2022-10-12T03:58:13.248Z,11.90
2022-10-12T04:00:41.873Z,12.58
2022-10-12T04:03:09.539Z,12.38
2022-10-12T04:05:37.211Z,10.72
2022-10-12T04:08:05.060Z,9.27
2022-10-12T04:10:32.693Z,8.20
2022-10-12T04:13:00.306Z,7.43
2022-10-12T04:15:27.944Z,6.82
2022-10-12T04:17:55.609Z,6.32
2022-10-12T04:20:23.269Z,5.89
2022-10-12T04:22:50.890Z,5.50
2022-10-12T04:25:18.569Z,5.15
2022-10-12T04:27:46.208Z,4.83
2022-10-12T04:30:14.163Z,4.53
2022-10-12T04:32:42.046Z,4.26
2022-10-12T04:35:09.730Z,5.06
2022-10-12T04:37:37.761Z,8.37
2022-10-12T04:40:06.341Z,10.44
2022-10-12T04:42:34.000Z,11.52
2022-10-12T04:45:01.792Z,12.24
2022-10-12T04:47:29.535Z,12.27
2022-10-12T04:49:57.111Z,10.70
2022-10-12T04:52:24.773Z,9.24
2022-10-12T04:54:52.432Z,8.17
2022-10-12T04:57:20.294Z,7.40
2022-10-12T04:59:47.921Z,6.78
2022-10-12T05:02:15.957Z,6.28
2022-10-12T05:04:43.758Z,5.85
2022-10-12T05:07:11.466Z,5.49
2022-10-12T05:09:39.368Z,5.17
2022-10-12T05:12:07.236Z,4.89
2022-10-12T05:14:36.204Z,4.63
2022-10-12T05:20:26.713Z,6.66
2022-10-12T05:22:54.362Z,9.59
2022-10-12T05:25:22.174Z,11.08
2022-10-12T05:27:49.857Z,11.99
2022-10-12T05:30:17.680Z,12.66
2022-10-12T05:32:45.316Z,12.65
2022-10-12T05:35:13.020Z,11.13
2022-10-12T05:37:41.110Z,9.83
2022-10-12T05:40:09.278Z,8.90
2022-10-12T05:42:37.218Z,8.25
2022-10-12T05:45:06.059Z,7.76
2022-10-12T05:47:33.868Z,7.38
2022-10-12T05:50:01.840Z,7.09
2022-10-12T05:52:29.681Z,6.85
2022-10-12T05:54:57.311Z,6.65
2022-10-12T05:57:24.989Z,6.50
2022-10-12T05:59:52.623Z,6.39
2022-10-12T06:02:21.623Z,7.55
2022-10-12T06:04:49.381Z,10.85
2022-10-12T06:07:17.120Z,12.80
2022-10-12T06:09:44.823Z,13.91
2022-10-12T06:12:12.777Z,14.69
2022-10-12T06:14:40.415Z,14.67
2022-10-12T06:17:09.584Z,13.32
2022-10-12T06:19:37.341Z,12.18
2022-10-12T06:22:05.127Z,11.42
2022-10-12T06:24:32.847Z,10.91
2022-10-12T06:27:01.168Z,10.55
2022-10-12T06:29:28.780Z,10.27
2022-10-12T06:31:56.525Z,10.06
2022-10-12T06:34:24.228Z,9.89
2022-10-12T06:36:52.314Z,9.77
2022-10-12T06:39:20.037Z,9.68
2022-10-12T06:41:47.777Z,9.62
2022-10-12T06:44:15.603Z,9.58
2022-10-12T06:46:43.295Z,10.79
2022-10-12T06:49:11.057Z,13.92
2022-10-12T06:51:39.103Z,15.79
2022-10-12T06:54:06.710Z,16.27
2022-10-12T06:56:35.055Z,15.11
2022-10-12T06:59:02.707Z,14.10
2022-10-12T07:01:30.471Z,13.54
2022-10-12T07:04:00.653Z,13.46
2022-10-12T07:06:28.828Z,13.85
2022-10-12T07:08:56.502Z,14.50
2022-10-12T07:11:24.271Z,15.24
2022-10-12T07:13:51.865Z,16.02
2022-10-12T07:16:19.642Z,16.79
2022-10-12T07:18:47.311Z,17.52
2022-10-12T07:21:15.035Z,18.24
2022-10-12T07:23:46.043Z,18.97
2022-10-12T07:26:14.326Z,19.65
2022-10-12T07:28:42.059Z,20.28
2022-10-12T07:31:10.068Z,20.92
2022-10-12T07:33:41.188Z,21.58
2022-10-12T07:36:21.286Z,22.31
2022-10-12T07:38:50.161Z,23.01
2022-10-12T07:41:18.520Z,23.57
2022-10-12T07:43:46.256Z,24.15
2022-10-12T07:46:14.047Z,24.63
2022-10-12T07:48:47.273Z,25.14
2022-10-12T07:51:18.446Z,25.69
2022-10-12T07:53:46.203Z,26.20
2022-10-12T07:56:17.209Z,26.72
2022-10-12T07:58:50.371Z,27.28
2022-10-12T08:01:19.773Z,27.94
2022-10-12T08:03:48.275Z,28.51
2022-10-12T08:06:18.901Z,28.93
2022-10-12T08:08:46.983Z,29.38
2022-10-12T08:11:14.691Z,29.76
2022-10-12T08:13:43.506Z,30.11
2022-10-12T08:16:14.694Z,30.66
2022-10-12T08:18:42.646Z,31.37
2022-10-12T08:21:12.931Z,32.05
2022-10-12T08:23:41.097Z,32.55
2022-10-12T08:26:09.893Z,32.88
2022-10-12T08:28:37.744Z,33.28
2022-10-12T08:31:07.283Z,33.88
2022-10-12T08:33:35.272Z,34.63
2022-10-12T08:36:05.234Z,35.31
2022-10-12T08:38:33.752Z,35.90
2022-10-12T08:41:06.990Z,36.39
2022-10-12T08:43:52.301Z,36.85
2022-10-12T08:46:22.469Z,37.25
2022-10-12T08:48:59.988Z,37.48
2022-10-12T08:51:31.744Z,37.70
2022-10-12T08:54:07.539Z,37.93
2022-10-12T08:56:35.864Z,38.15
2022-10-12T08:59:03.745Z,38.36
2022-10-12T09:01:51.697Z,38.53
2022-10-12T09:04:22.594Z,38.84
2022-10-12T09:07:15.193Z,39.05
2022-10-12T09:09:51.913Z,39.16
2022-10-12T09:12:51.959Z,39.41
2022-10-12T09:15:24.080Z,39.64
2022-10-12T09:17:56.769Z,39.82
2022-10-12T09:20:47.066Z,39.83
2022-10-12T09:23:24.426Z,40.01
2022-10-12T09:25:59.106Z,40.26
2022-10-12T09:28:37.644Z,40.40
2022-10-12T09:31:20.668Z,40.40
2022-10-12T09:33:54.221Z,40.61
2022-10-12T09:36:25.236Z,40.88
2022-10-12T09:38:53.656Z,40.95
2022-10-12T09:41:29.724Z,40.66
2022-10-12T09:44:00.535Z,40.60
2022-10-12T09:46:58.072Z,40.85
2022-10-12T09:49:47.266Z,41.05
2022-10-12T09:52:18.020Z,41.24
2022-10-12T09:54:49.870Z,41.41
2022-10-12T09:57:28.174Z,41.48
2022-10-12T09:59:56.147Z,41.46
2022-10-12T10:02:25.199Z,41.32
2022-10-12T10:04:54.177Z,41.27
2022-10-12T10:07:35.202Z,41.41
2022-10-12T10:10:16.144Z,41.50
2022-10-12T10:12:48.737Z,41.20
2022-10-12T10:15:23.596Z,41.08
2022-10-12T10:17:54.664Z,41.14
2022-10-12T10:20:36.894Z,41.21
2022-10-12T10:23:05.376Z,41.00
2022-10-12T10:25:34.124Z,40.91
2022-10-12T10:28:22.392Z,40.86
2022-10-12T10:30:59.955Z,40.50
2022-10-12T10:33:27.743Z,39.74
2022-10-12T10:36:05.030Z,39.11
2022-10-12T10:38:49.520Z,38.24
2022-10-12T10:41:20.665Z,37.32
2022-10-12T10:43:49.741Z,36.69
2022-10-12T10:46:27.989Z,36.04
2022-10-12T10:49:06.238Z,35.13
2022-10-12T10:51:53.947Z,33.96
2022-10-12T10:54:24.308Z,33.27
2022-10-12T10:56:56.897Z,32.91
2022-10-12T10:59:36.012Z,32.63
2022-10-12T11:02:11.300Z,32.72
2022-10-12T11:04:46.423Z,32.85
2022-10-12T11:07:56.387Z,33.10
2022-10-12T11:10:31.240Z,33.47
2022-10-12T11:13:24.428Z,33.64
2022-10-12T11:16:03.079Z,33.53
2022-10-12T11:18:41.551Z,33.14
2022-10-12T11:21:17.976Z,32.67
2022-10-12T11:23:51.367Z,31.92
2022-10-12T11:26:43.777Z,31.18
2022-10-12T11:29:14.956Z,30.69
2022-10-12T11:31:50.224Z,30.49
2022-10-12T11:34:21.875Z,30.42
2022-10-12T11:37:18.298Z,30.24
2022-10-12T11:39:47.901Z,29.99
2022-10-12T11:42:27.582Z,30.02
2022-10-12T11:44:55.497Z,30.09
2022-10-12T11:47:38.068Z,29.84
2022-10-12T11:50:27.150Z,29.78
2022-10-12T11:52:57.194Z,29.80
2022-10-12T11:55:30.750Z,29.67
2022-10-12T11:58:07.632Z,29.35
2022-10-12T12:01:04.402Z,28.86
2022-10-12T12:03:44.411Z,28.14
2022-10-12T12:06:32.441Z,27.43
2022-10-12T12:09:02.857Z,26.64
2022-10-12T12:11:33.869Z,25.98
2022-10-12T12:14:26.428Z,25.35
2022-10-12T12:17:14.023Z,24.73
2022-10-12T12:19:43.789Z,23.99
2022-10-12T12:22:31.836Z,23.28
2022-10-12T12:25:15.531Z,22.54
2022-10-12T12:27:45.053Z,21.93
2022-10-12T12:30:18.556Z,21.56
2022-10-12T12:32:56.654Z,21.37
2022-10-12T12:35:33.013Z,21.10
2022-10-12T12:38:05.083Z,20.93
2022-10-12T12:40:33.824Z,20.63
2022-10-12T12:43:29.821Z,20.34
2022-10-12T12:45:57.906Z,20.09
2022-10-12T12:48:43.817Z,19.84
2022-10-12T12:51:20.697Z,19.51
2022-10-12T12:53:55.729Z,19.22
2022-10-12T12:56:56.372Z,19.07
2022-10-12T12:59:50.526Z,18.84
2022-10-12T13:02:49.297Z,18.52
2022-10-12T13:05:38.665Z,18.24
2022-10-12T13:08:18.703Z,17.99
2022-10-12T13:11:14.526Z,17.77
2022-10-12T13:14:07.002Z,17.50
2022-10-12T13:19:42.163Z,16.95
2022-10-12T13:22:33.525Z,16.81
2022-10-12T13:25:07.166Z,16.66
2022-10-12T13:27:45.866Z,16.56
2022-10-12T13:30:36.341Z,16.51
2022-10-12T13:33:21.648Z,16.52
2022-10-12T13:36:13.244Z,16.58
2022-10-12T13:38:40.882Z,16.62
2022-10-12T13:41:13.208Z,16.66
2022-10-12T13:44:02.385Z,16.68
2022-10-12T13:46:45.217Z,16.66
2022-10-12T13:49:23.827Z,16.64
2022-10-12T13:51:57.915Z,16.61
2022-10-12T13:54:31.692Z,16.63
2022-10-12T13:57:03.107Z,16.66
2022-10-12T13:59:36.554Z,16.67
2022-10-12T14:02:17.212Z,16.65
2022-10-12T14:04:44.965Z,16.63
2022-10-12T14:07:22.580Z,16.59
2022-10-12T14:09:58.758Z,16.52
2022-10-12T14:12:30.050Z,16.46
2022-10-12T14:14:58.637Z,16.38
2022-10-12T14:17:26.362Z,16.29
2022-10-12T14:19:58.873Z,16.22
2022-10-12T14:22:30.223Z,16.13
2022-10-12T14:25:06.978Z,16.06
2022-10-12T14:27:37.960Z,16.01
2022-10-12T14:30:33.872Z,15.97
2022-10-12T14:33:16.968Z,15.91
2022-10-12T14:35:48.348Z,15.83
2022-10-12T14:38:45.697Z,15.75
2022-10-12T14:41:28.526Z,15.65
2022-10-12T14:44:08.319Z,15.56
2022-10-12T14:46:40.736Z,15.46
2022-10-12T14:49:20.346Z,15.38
2022-10-12T14:51:50.322Z,15.28
2022-10-12T14:54:18.109Z,15.18
2022-10-12T14:56:46.184Z,15.07
2022-10-12T14:59:14.951Z,14.97
2022-10-12T15:01:50.990Z,14.86
2022-10-12T15:04:19.277Z,14.73
2022-10-12T15:06:50.898Z,14.62
2022-10-12T15:09:19.549Z,14.53
2022-10-12T15:11:47.346Z,14.44
2022-10-12T15:14:15.296Z,14.35
2022-10-12T15:16:46.511Z,14.27
2022-10-12T15:19:14.399Z,14.20
2022-10-12T15:21:46.763Z,14.14
2022-10-12T15:24:15.624Z,14.07
2022-10-12T15:26:47.026Z,14.01
2022-10-12T15:29:14.724Z,13.93
2022-10-12T15:31:47.768Z,13.86
2022-10-12T15:34:19.102Z,13.78
2022-10-12T15:36:47.180Z,13.72
2022-10-12T15:39:14.845Z,13.67
2022-10-12T15:41:42.708Z,13.61
2022-10-12T15:44:13.168Z,13.57
2022-10-12T15:46:41.663Z,13.51
2022-10-12T15:49:09.519Z,13.45
2022-10-12T15:51:44.939Z,13.39
2022-10-12T15:54:12.680Z,13.32
2022-10-12T15:56:40.918Z,13.26
2022-10-12T15:59:08.781Z,13.19
2022-10-12T16:01:37.885Z,13.12
2022-10-12T16:04:07.515Z,13.05
2022-10-12T16:06:35.191Z,12.98
2022-10-12T16:09:02.906Z,12.91
2022-10-12T16:11:30.627Z,12.84
2022-10-12T16:13:58.257Z,12.77
2022-10-12T16:16:26.127Z,12.70
2022-10-12T16:18:54.348Z,12.64
2022-10-12T16:21:22.289Z,12.58
2022-10-12T16:23:49.974Z,12.53
2022-10-12T16:26:17.674Z,12.49
2022-10-12T16:28:45.531Z,12.44
2022-10-12T16:31:17.627Z,12.39
2022-10-12T16:33:45.719Z,12.35
2022-10-12T16:36:16.509Z,12.31
2022-10-12T16:38:44.343Z,12.26
2022-10-12T16:41:16.576Z,12.22
2022-10-12T16:43:44.450Z,13.44
2022-10-12T16:46:12.150Z,16.48
2022-10-12T16:48:39.803Z,18.17
2022-10-12T16:51:12.177Z,18.59
2022-10-12T16:53:42.309Z,17.35
2022-10-12T16:56:10.286Z,16.25
2022-10-12T16:58:37.960Z,15.50
2022-10-12T17:01:11.511Z,14.98
2022-10-12T17:03:40.338Z,14.56
2022-10-12T17:06:08.904Z,14.24
2022-10-12T17:08:39.129Z,13.96
2022-10-12T17:11:13.595Z,13.72
2022-10-12T17:13:45.241Z,13.49
2022-10-12T17:16:36.141Z,13.30
2022-10-12T17:19:04.542Z,13.11
2022-10-12T17:21:32.194Z,12.95
2022-10-12T17:24:01.017Z,12.80
2022-10-12T17:26:28.901Z,12.67
2022-10-12T17:28:56.623Z,13.58
2022-10-12T17:31:24.799Z,16.50
2022-10-12T17:33:53.123Z,18.22
2022-10-12T17:36:24.431Z,18.67
2022-10-12T17:38:56.809Z,17.39
2022-10-12T17:41:25.492Z,16.22
2022-10-12T17:43:53.172Z,15.46
2022-10-12T17:46:22.699Z,14.91
2022-10-12T17:48:51.017Z,14.47
2022-10-12T17:51:18.926Z,14.11
2022-10-12T17:53:46.837Z,13.80
2022-10-12T17:56:15.297Z,13.51
2022-10-12T17:58:43.097Z,13.26
2022-10-12T18:01:14.125Z,13.04
2022-10-12T18:03:45.373Z,12.82
2022-10-12T18:06:16.107Z,12.63
2022-10-12T18:08:44.414Z,13.55
2022-10-12T18:11:12.467Z,16.31
2022-10-12T18:13:40.280Z,17.85
2022-10-12T18:16:11.074Z,18.75
2022-10-12T18:18:39.697Z,18.80
2022-10-12T18:21:10.646Z,17.45
2022-10-12T18:23:38.413Z,16.29
2022-10-12T18:26:11.719Z,15.48
2022-10-12T18:28:40.837Z,14.86
2022-10-12T18:31:08.669Z,14.38
2022-10-12T18:33:36.372Z,13.98
2022-10-12T18:36:05.839Z,13.63
2022-10-12T18:38:34.439Z,13.32
2022-10-12T18:41:07.394Z,13.03
2022-10-12T18:43:36.265Z,12.73
2022-10-12T18:46:12.799Z,12.49
2022-10-12T18:48:41.026Z,12.29
2022-10-12T18:51:25.180Z,12.11
2022-10-12T18:53:53.181Z,13.34
2022-10-12T18:56:21.248Z,16.25
2022-10-12T18:58:49.537Z,17.97
2022-10-12T19:01:20.247Z,18.96
2022-10-12T19:03:48.808Z,18.96
2022-10-12T19:06:20.514Z,17.49
2022-10-12T19:08:49.083Z,16.21
2022-10-12T19:11:19.099Z,15.33
2022-10-12T19:13:55.528Z,14.66
2022-10-12T19:16:23.801Z,14.09
2022-10-12T19:18:59.838Z,13.62
2022-10-12T19:21:28.218Z,13.19
2022-10-12T19:23:56.133Z,12.83
2022-10-12T19:26:26.966Z,12.50
2022-10-12T19:28:56.418Z,12.19
2022-10-12T19:31:26.854Z,13.07
2022-10-12T19:33:59.666Z,15.87
2022-10-12T19:36:28.630Z,17.41
2022-10-12T19:38:58.960Z,17.57
2022-10-12T19:41:28.814Z,16.18
2022-10-12T19:43:57.541Z,14.90
2022-10-12T19:46:25.432Z,13.99
2022-10-12T19:48:55.078Z,13.33
2022-10-12T19:51:24.626Z,12.80
2022-10-12T19:53:57.521Z,12.34
2022-10-12T19:56:26.063Z,11.90
2022-10-12T19:58:56.251Z,11.52
2022-10-12T20:01:27.408Z,11.18
2022-10-12T20:03:55.918Z,10.87
2022-10-12T20:06:26.346Z,11.86
2022-10-12T20:08:56.192Z,14.86
2022-10-12T20:11:25.176Z,16.36
2022-10-12T20:13:53.416Z,17.03
2022-10-12T20:16:22.033Z,16.94
2022-10-12T20:18:50.478Z,15.44
2022-10-12T20:21:24.484Z,14.10
2022-10-12T20:23:52.276Z,13.06
2022-10-12T20:26:25.702Z,12.29
2022-10-12T20:28:54.475Z,11.66
2022-10-12T20:31:27.514Z,11.15
2022-10-12T20:33:57.793Z,10.67
2022-10-12T20:36:30.221Z,10.23
2022-10-12T20:38:59.340Z,9.84
2022-10-12T20:41:28.088Z,9.51
2022-10-12T20:43:57.236Z,9.21
2022-10-12T20:46:25.988Z,10.02
2022-10-12T20:48:58.817Z,12.93
2022-10-12T20:51:32.885Z,14.62
2022-10-12T20:54:03.076Z,15.51
2022-10-12T20:56:33.018Z,15.46
2022-10-12T20:59:01.437Z,13.95
2022-10-12T21:01:29.509Z,12.65
2022-10-12T21:03:57.422Z,11.71
2022-10-12T21:06:25.185Z,10.99
2022-10-12T21:08:55.273Z,10.41
2022-10-12T21:11:23.435Z,9.94
2022-10-12T21:13:51.155Z,9.53
2022-10-12T21:16:19.265Z,9.13
2022-10-12T21:18:47.158Z,8.78
2022-10-12T21:21:18.529Z,8.48
2022-10-12T21:23:57.713Z,9.43
2022-10-12T21:26:29.162Z,12.60
2022-10-12T21:28:58.267Z,14.14
2022-10-12T21:31:31.777Z,14.92
2022-10-12T21:34:05.111Z,14.87
2022-10-12T21:36:36.378Z,13.32
2022-10-12T21:39:09.868Z,12.02
2022-10-12T21:41:37.603Z,11.07
2022-10-12T21:44:05.684Z,10.40
2022-10-12T21:46:35.192Z,9.86
2022-10-12T21:49:04.656Z,9.38
2022-10-12T21:51:32.901Z,8.95
2022-10-12T21:54:00.633Z,8.58
2022-10-12T21:56:33.194Z,8.24
2022-10-12T21:59:02.185Z,7.91
2022-10-12T22:01:39.007Z,7.64
2022-10-12T22:04:11.836Z,8.57
2022-10-12T22:06:39.821Z,11.69
2022-10-12T22:09:11.903Z,13.41
2022-10-12T22:11:39.693Z,14.43
2022-10-12T22:14:11.274Z,15.13
2022-10-12T22:16:39.506Z,15.55
2022-10-12T22:19:08.428Z,15.41
2022-10-12T22:21:36.540Z,13.83
2022-10-12T22:24:05.936Z,12.41
2022-10-12T22:26:35.172Z,11.38
2022-10-12T22:29:05.126Z,10.58
2022-10-12T22:31:33.582Z,9.95
2022-10-12T22:34:01.297Z,9.42
2022-10-12T22:36:31.112Z,8.94
2022-10-12T22:38:59.616Z,8.50
2022-10-12T22:41:27.470Z,8.11
2022-10-12T22:43:56.847Z,7.75
2022-10-12T22:46:25.907Z,7.43
2022-10-12T22:48:54.612Z,7.12
2022-10-12T22:51:31.244Z,7.95
2022-10-12T22:54:00.386Z,11.27
2022-10-12T22:56:28.774Z,13.05
2022-10-12T22:58:59.099Z,13.31
2022-10-12T23:01:27.244Z,11.79
2022-10-12T23:03:55.385Z,10.43
2022-10-12T23:06:23.749Z,9.48
2022-10-12T23:08:51.759Z,8.77
2022-10-12T23:11:25.124Z,8.23
2022-10-12T23:13:54.372Z,7.78
2022-10-12T23:16:24.514Z,7.42
2022-10-12T23:18:59.933Z,7.08
2022-10-12T23:21:29.484Z,6.77
2022-10-12T23:40:08.686Z,14.54
2022-10-12T23:42:34.919Z,12.89
2022-10-12T23:45:03.361Z,11.41
2022-10-12T23:47:29.991Z,10.34
2022-10-12T23:49:56.224Z,9.54
2022-10-12T23:52:22.437Z,8.91
2022-10-12T23:54:50.266Z,8.35
2022-10-12T23:57:41.395Z,7.87
